sensor_id;sensor_type;location;lat;lon;timestamp;P1;durP1;ratioP1;P2;durP2;ratioP2
33593;SDS011;19920;52.242;20.940;2023-02-01T00:01:34;12.35;;;6.70;;
33593;SDS011;19920;52.242;20.940;2023-02-01T00:03:59;11.02;;;6.85;;
33593;SDS011;19920;52.242;20.940;2023-02-01T00:06:25;8.82;;;6.22;;
33593;SDS011;19920;52.242;20.940;2023-02-01T00:08:54;10.43;;;6.18;;
33593;SDS011;19920;52.242;20.940;2023-02-01T00:11:20;8.05;;;6.13;;
33593;SDS011;19920;52.242;20.940;2023-02-01T00:13:47;10.50;;;5.40;;
33593;SDS011;19920;52.242;20.940;2023-02-01T00:18:43;8.93;;;5.68;;
33593;SDS011;19920;52.242;20.940;2023-02-01T00:21:10;9.73;;;5.70;;
33593;SDS011;19920;52.242;20.940;2023-02-01T00:23:37;7.95;;;5.60;;
33593;SDS011;19920;52.242;20.940;2023-02-01T00:26:04;7.72;;;5.05;;
33593;SDS011;19920;52.242;20.940;2023-02-01T00:28:31;6.30;;;4.97;;
33593;SDS011;19920;52.242;20.940;2023-02-01T00:31:00;5.10;;;3.85;;
33593;SDS011;19920;52.242;20.940;2023-02-01T00:33:28;6.13;;;4.03;;
33593;SDS011;19920;52.242;20.940;2023-02-01T00:36:01;5.07;;;3.38;;
33593;SDS011;19920;52.242;20.940;2023-02-01T00:38:31;4.78;;;3.10;;
33593;SDS011;19920;52.242;20.940;2023-02-01T00:41:04;4.88;;;2.90;;
33593;SDS011;19920;52.242;20.940;2023-02-01T00:43:32;5.47;;;2.50;;
33593;SDS011;19920;52.242;20.940;2023-02-01T00:45:58;5.43;;;2.40;;
33593;SDS011;19920;52.242;20.940;2023-02-01T00:48:24;3.97;;;2.33;;
33593;SDS011;19920;52.242;20.940;2023-02-01T00:50:50;5.30;;;2.33;;
33593;SDS011;19920;52.242;20.940;2023-02-01T00:53:16;4.25;;;2.10;;
33593;SDS011;19920;52.242;20.940;2023-02-01T00:55:44;2.92;;;2.00;;
33593;SDS011;19920;52.242;20.940;2023-02-01T00:58:13;3.40;;;1.88;;
33593;SDS011;19920;52.242;20.940;2023-02-01T01:00:39;3.88;;;2.00;;
33593;SDS011;19920;52.242;20.940;2023-02-01T01:03:05;4.70;;;1.45;;
33593;SDS011;19920;52.242;20.940;2023-02-01T01:05:44;4.63;;;1.55;;
33593;SDS011;19920;52.242;20.940;2023-02-01T01:08:10;2.70;;;1.38;;
33593;SDS011;19920;52.242;20.940;2023-02-01T01:10:36;4.40;;;1.60;;
33593;SDS011;19920;52.242;20.940;2023-02-01T01:13:01;4.57;;;1.50;;
33593;SDS011;19920;52.242;20.940;2023-02-01T01:15:27;3.42;;;1.35;;
33593;SDS011;19920;52.242;20.940;2023-02-01T01:17:53;2.88;;;1.00;;
33593;SDS011;19920;52.242;20.940;2023-02-01T01:20:18;3.75;;;1.10;;
33593;SDS011;19920;52.242;20.940;2023-02-01T01:22:46;3.35;;;1.00;;
33593;SDS011;19920;52.242;20.940;2023-02-01T01:25:12;4.03;;;1.13;;
33593;SDS011;19920;52.242;20.940;2023-02-01T01:27:38;3.85;;;0.80;;
33593;SDS011;19920;52.242;20.940;2023-02-01T01:30:04;4.90;;;1.20;;
33593;SDS011;19920;52.242;20.940;2023-02-01T01:32:31;3.60;;;0.90;;
33593;SDS011;19920;52.242;20.940;2023-02-01T01:34:56;3.72;;;1.10;;
33593;SDS011;19920;52.242;20.940;2023-02-01T01:37:22;5.35;;;0.80;;
33593;SDS011;19920;52.242;20.940;2023-02-01T01:39:48;3.35;;;0.80;;
33593;SDS011;19920;52.242;20.940;2023-02-01T01:42:13;4.07;;;1.10;;
33593;SDS011;19920;52.242;20.940;2023-02-01T01:47:29;3.53;;;1.20;;
33593;SDS011;19920;52.242;20.940;2023-02-01T01:50:01;3.67;;;1.20;;
33593;SDS011;19920;52.242;20.940;2023-02-01T01:52:29;4.40;;;1.30;;
33593;SDS011;19920;52.242;20.940;2023-02-01T01:54:55;6.68;;;1.40;;
33593;SDS011;19920;52.242;20.940;2023-02-01T01:57:24;6.07;;;1.55;;
33593;SDS011;19920;52.242;20.940;2023-02-01T02:00:16;13.20;;;1.60;;
33593;SDS011;19920;52.242;20.940;2023-02-01T02:02:43;4.93;;;1.95;;
33593;SDS011;19920;52.242;20.940;2023-02-01T02:05:11;7.38;;;1.50;;
33593;SDS011;19920;52.242;20.940;2023-02-01T02:07:39;7.90;;;1.20;;
33593;SDS011;19920;52.242;20.940;2023-02-01T02:10:09;7.10;;;1.40;;
33593;SDS011;19920;52.242;20.940;2023-02-01T02:12:41;5.90;;;1.60;;
33593;SDS011;19920;52.242;20.940;2023-02-01T02:15:10;7.05;;;1.88;;
33593;SDS011;19920;52.242;20.940;2023-02-01T02:26:35;13.93;;;1.80;;
33593;SDS011;19920;52.242;20.940;2023-02-01T02:34:47;12.40;;;2.00;;
33593;SDS011;19920;52.242;20.940;2023-02-01T02:37:28;9.85;;;2.00;;
33593;SDS011;19920;52.242;20.940;2023-02-01T02:45:54;11.90;;;2.58;;
33593;SDS011;19920;52.242;20.940;2023-02-01T02:51:46;6.97;;;2.08;;
33593;SDS011;19920;52.242;20.940;2023-02-01T02:54:36;7.85;;;2.30;;
33593;SDS011;19920;52.242;20.940;2023-02-01T02:57:20;9.85;;;2.13;;
33593;SDS011;19920;52.242;20.940;2023-02-01T03:00:27;6.40;;;1.67;;
33593;SDS011;19920;52.242;20.940;2023-02-01T03:05:59;9.13;;;1.83;;
33593;SDS011;19920;52.242;20.940;2023-02-01T03:08:26;9.80;;;1.65;;
33593;SDS011;19920;52.242;20.940;2023-02-01T03:13:41;11.18;;;1.88;;
33593;SDS011;19920;52.242;20.940;2023-02-01T03:18:52;6.90;;;1.50;;
33593;SDS011;19920;52.242;20.940;2023-02-01T03:21:32;8.00;;;1.52;;
33593;SDS011;19920;52.242;20.940;2023-02-01T03:24:07;9.57;;;1.75;;
33593;SDS011;19920;52.242;20.940;2023-02-01T03:26:53;9.68;;;1.58;;
33593;SDS011;19920;52.242;20.940;2023-02-01T03:29:23;12.68;;;1.88;;
33593;SDS011;19920;52.242;20.940;2023-02-01T03:31:54;7.07;;;1.60;;
33593;SDS011;19920;52.242;20.940;2023-02-01T03:34:20;13.90;;;2.08;;
33593;SDS011;19920;52.242;20.940;2023-02-01T03:36:55;16.67;;;1.98;;
33593;SDS011;19920;52.242;20.940;2023-02-01T03:42:13;16.95;;;2.45;;
33593;SDS011;19920;52.242;20.940;2023-02-01T03:47:56;11.77;;;2.45;;
33593;SDS011;19920;52.242;20.940;2023-02-01T03:50:25;12.02;;;2.30;;
33593;SDS011;19920;52.242;20.940;2023-02-01T03:52:57;9.40;;;1.50;;
33593;SDS011;19920;52.242;20.940;2023-02-01T03:55:30;11.50;;;1.98;;
33593;SDS011;19920;52.242;20.940;2023-02-01T03:57:58;10.88;;;2.05;;
33593;SDS011;19920;52.242;20.940;2023-02-01T04:00:30;12.50;;;2.10;;
33593;SDS011;19920;52.242;20.940;2023-02-01T04:02:55;11.60;;;2.45;;
33593;SDS011;19920;52.242;20.940;2023-02-01T04:05:21;13.30;;;2.38;;
33593;SDS011;19920;52.242;20.940;2023-02-01T04:07:47;14.77;;;2.22;;
33593;SDS011;19920;52.242;20.940;2023-02-01T04:10:13;7.82;;;1.80;;
33593;SDS011;19920;52.242;20.940;2023-02-01T04:12:40;9.38;;;1.73;;
33593;SDS011;19920;52.242;20.940;2023-02-01T04:15:06;12.93;;;2.40;;
33593;SDS011;19920;52.242;20.940;2023-02-01T04:17:32;13.75;;;2.35;;
33593;SDS011;19920;52.242;20.940;2023-02-01T04:19:58;10.48;;;1.88;;
33593;SDS011;19920;52.242;20.940;2023-02-01T04:22:23;8.27;;;1.63;;
33593;SDS011;19920;52.242;20.940;2023-02-01T04:24:49;7.35;;;1.75;;
33593;SDS011;19920;52.242;20.940;2023-02-01T04:27:15;10.73;;;1.80;;
33593;SDS011;19920;52.242;20.940;2023-02-01T04:29:40;14.45;;;2.60;;
33593;SDS011;19920;52.242;20.940;2023-02-01T04:32:06;8.02;;;1.73;;
33593;SDS011;19920;52.242;20.940;2023-02-01T04:34:32;10.73;;;1.77;;
33593;SDS011;19920;52.242;20.940;2023-02-01T04:36:58;10.30;;;1.90;;
33593;SDS011;19920;52.242;20.940;2023-02-01T04:39:24;14.60;;;2.78;;
33593;SDS011;19920;52.242;20.940;2023-02-01T04:41:49;13.77;;;1.98;;
33593;SDS011;19920;52.242;20.940;2023-02-01T04:44:16;12.70;;;1.83;;
33593;SDS011;19920;52.242;20.940;2023-02-01T04:46:43;10.57;;;1.65;;
33593;SDS011;19920;52.242;20.940;2023-02-01T04:49:10;10.70;;;1.92;;
33593;SDS011;19920;52.242;20.940;2023-02-01T04:51:37;8.18;;;1.70;;
33593;SDS011;19920;52.242;20.940;2023-02-01T04:54:03;11.48;;;1.63;;
33593;SDS011;19920;52.242;20.940;2023-02-01T04:56:29;12.68;;;2.13;;
33593;SDS011;19920;52.242;20.940;2023-02-01T04:58:54;9.73;;;1.67;;
33593;SDS011;19920;52.242;20.940;2023-02-01T05:01:21;11.68;;;2.28;;
33593;SDS011;19920;52.242;20.940;2023-02-01T05:03:48;10.05;;;2.17;;
33593;SDS011;19920;52.242;20.940;2023-02-01T05:06:13;11.55;;;2.10;;
33593;SDS011;19920;52.242;20.940;2023-02-01T05:08:39;14.57;;;1.80;;
33593;SDS011;19920;52.242;20.940;2023-02-01T05:11:05;13.27;;;2.45;;
33593;SDS011;19920;52.242;20.940;2023-02-01T05:13:31;18.95;;;2.20;;
33593;SDS011;19920;52.242;20.940;2023-02-01T05:16:15;8.82;;;1.60;;
33593;SDS011;19920;52.242;20.940;2023-02-01T05:18:41;10.13;;;1.45;;
33593;SDS011;19920;52.242;20.940;2023-02-01T05:21:07;9.68;;;1.95;;
33593;SDS011;19920;52.242;20.940;2023-02-01T05:23:33;9.65;;;1.75;;
33593;SDS011;19920;52.242;20.940;2023-02-01T05:26:19;12.35;;;1.70;;
33593;SDS011;19920;52.242;20.940;2023-02-01T05:28:44;14.27;;;2.17;;
33593;SDS011;19920;52.242;20.940;2023-02-01T05:31:10;11.75;;;1.67;;
33593;SDS011;19920;52.242;20.940;2023-02-01T05:33:36;11.65;;;1.95;;
33593;SDS011;19920;52.242;20.940;2023-02-01T05:36:02;12.23;;;1.92;;
33593;SDS011;19920;52.242;20.940;2023-02-01T05:38:28;13.52;;;1.92;;
33593;SDS011;19920;52.242;20.940;2023-02-01T05:40:54;11.18;;;1.58;;
33593;SDS011;19920;52.242;20.940;2023-02-01T05:43:21;11.02;;;1.77;;
33593;SDS011;19920;52.242;20.940;2023-02-01T05:45:46;16.17;;;1.83;;
33593;SDS011;19920;52.242;20.940;2023-02-01T05:48:12;10.82;;;2.30;;
33593;SDS011;19920;52.242;20.940;2023-02-01T05:50:38;10.63;;;2.17;;
33593;SDS011;19920;52.242;20.940;2023-02-01T05:53:03;11.48;;;2.17;;
33593;SDS011;19920;52.242;20.940;2023-02-01T05:55:29;14.60;;;2.47;;
33593;SDS011;19920;52.242;20.940;2023-02-01T05:57:55;12.95;;;1.88;;
33593;SDS011;19920;52.242;20.940;2023-02-01T06:00:21;11.90;;;2.42;;
33593;SDS011;19920;52.242;20.940;2023-02-01T06:02:47;7.72;;;2.15;;
33593;SDS011;19920;52.242;20.940;2023-02-01T06:05:13;13.45;;;2.20;;
33593;SDS011;19920;52.242;20.940;2023-02-01T06:07:38;11.55;;;2.42;;
33593;SDS011;19920;52.242;20.940;2023-02-01T06:10:04;17.05;;;2.50;;
33593;SDS011;19920;52.242;20.940;2023-02-01T06:12:30;12.93;;;2.65;;
33593;SDS011;19920;52.242;20.940;2023-02-01T06:14:56;11.73;;;2.38;;
33593;SDS011;19920;52.242;20.940;2023-02-01T06:17:23;10.70;;;2.20;;
33593;SDS011;19920;52.242;20.940;2023-02-01T06:19:49;12.77;;;2.08;;
33593;SDS011;19920;52.242;20.940;2023-02-01T06:22:14;13.68;;;2.35;;
33593;SDS011;19920;52.242;20.940;2023-02-01T06:24:40;16.83;;;2.35;;
33593;SDS011;19920;52.242;20.940;2023-02-01T06:27:06;9.48;;;2.20;;
33593;SDS011;19920;52.242;20.940;2023-02-01T06:29:32;9.95;;;1.85;;
33593;SDS011;19920;52.242;20.940;2023-02-01T06:31:58;10.82;;;2.28;;
33593;SDS011;19920;52.242;20.940;2023-02-01T06:34:24;16.00;;;2.50;;
33593;SDS011;19920;52.242;20.940;2023-02-01T06:36:49;16.08;;;2.65;;
33593;SDS011;19920;52.242;20.940;2023-02-01T06:39:15;5.78;;;1.67;;
33593;SDS011;19920;52.242;20.940;2023-02-01T06:41:42;10.45;;;2.05;;
33593;SDS011;19920;52.242;20.940;2023-02-01T06:44:10;11.88;;;2.03;;
33593;SDS011;19920;52.242;20.940;2023-02-01T06:46:36;12.20;;;2.10;;
33593;SDS011;19920;52.242;20.940;2023-02-01T06:49:02;14.38;;;3.22;;
33593;SDS011;19920;52.242;20.940;2023-02-01T06:51:27;10.07;;;2.25;;
33593;SDS011;19920;52.242;20.940;2023-02-01T06:53:54;17.25;;;2.10;;
33593;SDS011;19920;52.242;20.940;2023-02-01T06:56:20;14.13;;;2.28;;
33593;SDS011;19920;52.242;20.940;2023-02-01T06:58:46;10.65;;;2.08;;
33593;SDS011;19920;52.242;20.940;2023-02-01T07:01:12;13.27;;;2.55;;
33593;SDS011;19920;52.242;20.940;2023-02-01T07:03:39;17.02;;;3.10;;
33593;SDS011;19920;52.242;20.940;2023-02-01T07:06:05;8.43;;;1.77;;
33593;SDS011;19920;52.242;20.940;2023-02-01T07:08:33;12.82;;;2.25;;
33593;SDS011;19920;52.242;20.940;2023-02-01T07:11:07;12.10;;;2.28;;
33593;SDS011;19920;52.242;20.940;2023-02-01T07:13:34;19.13;;;2.95;;
33593;SDS011;19920;52.242;20.940;2023-02-01T07:16:01;13.55;;;2.33;;
33593;SDS011;19920;52.242;20.940;2023-02-01T07:18:28;8.35;;;1.83;;
33593;SDS011;19920;52.242;20.940;2023-02-01T07:20:54;12.45;;;2.60;;
33593;SDS011;19920;52.242;20.940;2023-02-01T07:23:21;12.88;;;2.00;;
33593;SDS011;19920;52.242;20.940;2023-02-01T07:25:47;8.55;;;2.03;;
33593;SDS011;19920;52.242;20.940;2023-02-01T07:28:13;18.52;;;2.58;;
33593;SDS011;19920;52.242;20.940;2023-02-01T07:30:39;13.23;;;2.13;;
33593;SDS011;19920;52.242;20.940;2023-02-01T07:33:06;16.17;;;2.40;;
33593;SDS011;19920;52.242;20.940;2023-02-01T07:35:32;8.70;;;2.10;;
33593;SDS011;19920;52.242;20.940;2023-02-01T07:37:58;20.48;;;2.47;;
33593;SDS011;19920;52.242;20.940;2023-02-01T07:40:24;9.48;;;1.98;;
33593;SDS011;19920;52.242;20.940;2023-02-01T07:42:54;14.27;;;2.80;;
33593;SDS011;19920;52.242;20.940;2023-02-01T07:45:20;14.93;;;2.70;;
33593;SDS011;19920;52.242;20.940;2023-02-01T07:47:47;14.65;;;2.72;;
33593;SDS011;19920;52.242;20.940;2023-02-01T07:50:13;12.45;;;2.40;;
33593;SDS011;19920;52.242;20.940;2023-02-01T07:52:38;14.80;;;2.58;;
33593;SDS011;19920;52.242;20.940;2023-02-01T07:55:05;15.75;;;2.80;;
33593;SDS011;19920;52.242;20.940;2023-02-01T07:57:32;10.38;;;2.50;;
33593;SDS011;19920;52.242;20.940;2023-02-01T07:59:57;17.08;;;2.85;;
33593;SDS011;19920;52.242;20.940;2023-02-01T08:02:41;10.75;;;2.45;;
33593;SDS011;19920;52.242;20.940;2023-02-01T08:05:07;14.77;;;2.22;;
33593;SDS011;19920;52.242;20.940;2023-02-01T08:07:33;16.02;;;2.30;;
33593;SDS011;19920;52.242;20.940;2023-02-01T08:09:58;13.38;;;2.28;;
33593;SDS011;19920;52.242;20.940;2023-02-01T08:12:25;12.65;;;2.50;;
33593;SDS011;19920;52.242;20.940;2023-02-01T08:14:51;13.27;;;2.15;;
33593;SDS011;19920;52.242;20.940;2023-02-01T08:17:18;17.92;;;2.70;;
33593;SDS011;19920;52.242;20.940;2023-02-01T08:19:44;14.27;;;2.67;;
33593;SDS011;19920;52.242;20.940;2023-02-01T08:22:10;14.02;;;2.10;;
33593;SDS011;19920;52.242;20.940;2023-02-01T08:24:36;17.10;;;2.40;;
33593;SDS011;19920;52.242;20.940;2023-02-01T08:27:04;14.82;;;2.60;;
33593;SDS011;19920;52.242;20.940;2023-02-01T08:29:30;14.90;;;2.70;;
33593;SDS011;19920;52.242;20.940;2023-02-01T08:31:56;15.93;;;2.78;;
33593;SDS011;19920;52.242;20.940;2023-02-01T08:34:21;12.40;;;2.80;;
33593;SDS011;19920;52.242;20.940;2023-02-01T08:36:47;12.70;;;2.92;;
33593;SDS011;19920;52.242;20.940;2023-02-01T08:39:13;15.65;;;2.80;;
33593;SDS011;19920;52.242;20.940;2023-02-01T08:41:39;12.65;;;2.95;;
33593;SDS011;19920;52.242;20.940;2023-02-01T08:44:07;15.00;;;3.05;;
33593;SDS011;19920;52.242;20.940;2023-02-01T08:46:32;11.38;;;2.90;;
33593;SDS011;19920;52.242;20.940;2023-02-01T08:48:58;17.13;;;3.20;;
33593;SDS011;19920;52.242;20.940;2023-02-01T08:51:24;11.23;;;2.70;;
33593;SDS011;19920;52.242;20.940;2023-02-01T08:53:49;14.32;;;2.75;;
33593;SDS011;19920;52.242;20.940;2023-02-01T08:56:16;12.73;;;2.53;;
33593;SDS011;19920;52.242;20.940;2023-02-01T08:58:42;17.23;;;3.40;;
33593;SDS011;19920;52.242;20.940;2023-02-01T09:01:13;18.23;;;3.25;;
33593;SDS011;19920;52.242;20.940;2023-02-01T09:03:40;14.25;;;2.72;;
33593;SDS011;19920;52.242;20.940;2023-02-01T09:06:10;18.92;;;3.10;;
33593;SDS011;19920;52.242;20.940;2023-02-01T09:08:37;10.48;;;2.50;;
33593;SDS011;19920;52.242;20.940;2023-02-01T09:11:05;12.32;;;2.47;;
33593;SDS011;19920;52.242;20.940;2023-02-01T09:13:32;10.80;;;2.60;;
33593;SDS011;19920;52.242;20.940;2023-02-01T09:15:58;16.10;;;2.50;;
33593;SDS011;19920;52.242;20.940;2023-02-01T09:18:24;12.38;;;2.53;;
33593;SDS011;19920;52.242;20.940;2023-02-01T09:20:50;12.63;;;2.40;;
33593;SDS011;19920;52.242;20.940;2023-02-01T09:23:16;12.00;;;2.47;;
33593;SDS011;19920;52.242;20.940;2023-02-01T09:25:42;13.55;;;2.30;;
33593;SDS011;19920;52.242;20.940;2023-02-01T09:28:08;15.13;;;2.50;;
33593;SDS011;19920;52.242;20.940;2023-02-01T09:30:34;10.32;;;2.42;;
33593;SDS011;19920;52.242;20.940;2023-02-01T09:33:01;10.23;;;2.20;;
33593;SDS011;19920;52.242;20.940;2023-02-01T09:35:26;13.52;;;2.65;;
33593;SDS011;19920;52.242;20.940;2023-02-01T09:37:52;12.40;;;2.83;;
33593;SDS011;19920;52.242;20.940;2023-02-01T09:40:18;12.43;;;3.03;;
33593;SDS011;19920;52.242;20.940;2023-02-01T09:47:55;15.65;;;2.92;;
33593;SDS011;19920;52.242;20.940;2023-02-01T09:50:33;10.23;;;2.60;;
33593;SDS011;19920;52.242;20.940;2023-02-01T09:53:25;12.77;;;2.88;;
33593;SDS011;19920;52.242;20.940;2023-02-01T09:55:58;14.98;;;2.97;;
33593;SDS011;19920;52.242;20.940;2023-02-01T10:01:27;13.93;;;2.53;;
33593;SDS011;19920;52.242;20.940;2023-02-01T10:04:03;11.93;;;2.50;;
33593;SDS011;19920;52.242;20.940;2023-02-01T10:12:35;11.30;;;2.65;;
33593;SDS011;19920;52.242;20.940;2023-02-01T10:20:56;13.70;;;2.80;;
33593;SDS011;19920;52.242;20.940;2023-02-01T10:26:25;13.80;;;2.55;;
33593;SDS011;19920;52.242;20.940;2023-02-01T10:28:58;12.25;;;2.55;;
33593;SDS011;19920;52.242;20.940;2023-02-01T10:31:26;9.15;;;2.28;;
33593;SDS011;19920;52.242;20.940;2023-02-01T10:33:57;9.15;;;1.98;;
33593;SDS011;19920;52.242;20.940;2023-02-01T10:38:55;12.95;;;3.20;;
33593;SDS011;19920;52.242;20.940;2023-02-01T10:41:23;10.43;;;3.10;;
33593;SDS011;19920;52.242;20.940;2023-02-01T10:43:55;10.65;;;2.30;;
33593;SDS011;19920;52.242;20.940;2023-02-01T10:46:23;9.95;;;2.30;;
33593;SDS011;19920;52.242;20.940;2023-02-01T10:48:50;10.77;;;2.50;;
33593;SDS011;19920;52.242;20.940;2023-02-01T10:51:24;11.27;;;2.80;;
33593;SDS011;19920;52.242;20.940;2023-02-01T10:54:19;16.92;;;3.00;;
33593;SDS011;19920;52.242;20.940;2023-02-01T10:57:09;11.20;;;3.03;;
33593;SDS011;19920;52.242;20.940;2023-02-01T10:59:36;14.60;;;3.25;;
33593;SDS011;19920;52.242;20.940;2023-02-01T11:02:05;12.00;;;2.88;;
33593;SDS011;19920;52.242;20.940;2023-02-01T11:05:09;14.48;;;2.85;;
33593;SDS011;19920;52.242;20.940;2023-02-01T11:07:37;15.32;;;3.83;;
33593;SDS011;19920;52.242;20.940;2023-02-01T11:10:04;14.18;;;3.92;;
33593;SDS011;19920;52.242;20.940;2023-02-01T11:15:02;14.02;;;2.92;;
33593;SDS011;19920;52.242;20.940;2023-02-01T11:17:43;12.77;;;2.95;;
33593;SDS011;19920;52.242;20.940;2023-02-01T11:20:15;19.33;;;3.78;;
33593;SDS011;19920;52.242;20.940;2023-02-01T11:22:55;12.98;;;3.03;;
33593;SDS011;19920;52.242;20.940;2023-02-01T11:27:48;10.35;;;2.90;;
33593;SDS011;19920;52.242;20.940;2023-02-01T11:30:19;9.38;;;2.63;;
33593;SDS011;19920;52.242;20.940;2023-02-01T11:32:58;10.82;;;3.00;;
33593;SDS011;19920;52.242;20.940;2023-02-01T11:35:26;11.32;;;2.60;;
33593;SDS011;19920;52.242;20.940;2023-02-01T11:37:55;15.05;;;3.17;;
33593;SDS011;19920;52.242;20.940;2023-02-01T11:40:37;16.77;;;3.30;;
33593;SDS011;19920;52.242;20.940;2023-02-01T11:43:11;13.73;;;2.90;;
33593;SDS011;19920;52.242;20.940;2023-02-01T11:45:40;12.25;;;2.30;;
33593;SDS011;19920;52.242;20.940;2023-02-01T11:48:10;11.35;;;2.97;;
33593;SDS011;19920;52.242;20.940;2023-02-01T11:53:20;13.02;;;3.53;;
33593;SDS011;19920;52.242;20.940;2023-02-01T12:07:19;15.30;;;3.10;;
33593;SDS011;19920;52.242;20.940;2023-02-01T12:12:48;12.48;;;3.05;;
33593;SDS011;19920;52.242;20.940;2023-02-01T12:15:41;12.40;;;3.22;;
33593;SDS011;19920;52.242;20.940;2023-02-01T12:37:16;20.00;;;4.70;;
33593;SDS011;19920;52.242;20.940;2023-02-01T12:45:31;17.30;;;4.28;;
33593;SDS011;19920;52.242;20.940;2023-02-01T12:48:04;16.20;;;4.07;;
33593;SDS011;19920;52.242;20.940;2023-02-01T12:50:43;18.27;;;4.07;;
33593;SDS011;19920;52.242;20.940;2023-02-01T12:53:18;16.92;;;3.85;;
33593;SDS011;19920;52.242;20.940;2023-02-01T12:55:47;15.02;;;4.10;;
33593;SDS011;19920;52.242;20.940;2023-02-01T13:00:47;15.57;;;4.20;;
33593;SDS011;19920;52.242;20.940;2023-02-01T13:06:57;16.05;;;4.03;;
33593;SDS011;19920;52.242;20.940;2023-02-01T13:11:40;17.35;;;4.20;;
33593;SDS011;19920;52.242;20.940;2023-02-01T13:16:54;15.55;;;3.72;;
33593;SDS011;19920;52.242;20.940;2023-02-01T13:19:28;13.40;;;4.35;;
33593;SDS011;19920;52.242;20.940;2023-02-01T13:21:59;21.75;;;4.45;;
33593;SDS011;19920;52.242;20.940;2023-02-01T13:24:43;15.32;;;5.68;;
33593;SDS011;19920;52.242;20.940;2023-02-01T13:27:19;17.52;;;4.13;;
33593;SDS011;19920;52.242;20.940;2023-02-01T13:29:47;14.35;;;4.10;;
33593;SDS011;19920;52.242;20.940;2023-02-01T13:40:38;12.68;;;3.90;;
33593;SDS011;19920;52.242;20.940;2023-02-01T13:43:38;13.57;;;3.50;;
33593;SDS011;19920;52.242;20.940;2023-02-01T13:45:57;9.45;;;2.50;;
33593;SDS011;19920;52.242;20.940;2023-02-01T13:48:30;10.90;;;3.20;;
33593;SDS011;19920;52.242;20.940;2023-02-01T13:51:03;13.95;;;3.50;;
33593;SDS011;19920;52.242;20.940;2023-02-01T13:53:33;11.88;;;2.97;;
33593;SDS011;19920;52.242;20.940;2023-02-01T13:56:10;14.90;;;3.45;;
33593;SDS011;19920;52.242;20.940;2023-02-01T13:58:40;11.80;;;3.25;;
33593;SDS011;19920;52.242;20.940;2023-02-01T14:03:55;13.40;;;3.25;;
33593;SDS011;19920;52.242;20.940;2023-02-01T14:11:35;13.70;;;3.42;;
33593;SDS011;19920;52.242;20.940;2023-02-01T14:16:42;10.40;;;2.95;;
33593;SDS011;19920;52.242;20.940;2023-02-01T14:19:08;9.93;;;3.30;;
33593;SDS011;19920;52.242;20.940;2023-02-01T14:21:49;11.35;;;3.20;;
33593;SDS011;19920;52.242;20.940;2023-02-01T14:24:25;10.85;;;2.95;;
33593;SDS011;19920;52.242;20.940;2023-02-01T14:26:57;10.18;;;3.67;;
33593;SDS011;19920;52.242;20.940;2023-02-01T14:29:32;9.25;;;3.22;;
33593;SDS011;19920;52.242;20.940;2023-02-01T14:32:05;8.13;;;3.00;;
33593;SDS011;19920;52.242;20.940;2023-02-01T14:34:36;13.45;;;3.58;;
33593;SDS011;19920;52.242;20.940;2023-02-01T14:37:08;9.07;;;3.50;;
33593;SDS011;19920;52.242;20.940;2023-02-01T14:47:45;9.93;;;3.22;;
33593;SDS011;19920;52.242;20.940;2023-02-01T15:06:58;7.88;;;2.63;;
33593;SDS011;19920;52.242;20.940;2023-02-01T15:17:34;7.57;;;3.22;;
33593;SDS011;19920;52.242;20.940;2023-02-01T15:20:21;7.35;;;3.60;;
33593;SDS011;19920;52.242;20.940;2023-02-01T15:22:54;9.60;;;3.05;;
33593;SDS011;19920;52.242;20.940;2023-02-01T15:25:24;8.10;;;3.25;;
33593;SDS011;19920;52.242;20.940;2023-02-01T15:27:52;7.70;;;3.58;;
33593;SDS011;19920;52.242;20.940;2023-02-01T15:32:47;8.82;;;4.03;;
33593;SDS011;19920;52.242;20.940;2023-02-01T15:35:47;8.10;;;3.47;;
33593;SDS011;19920;52.242;20.940;2023-02-01T15:40:56;9.00;;;3.92;;
33593;SDS011;19920;52.242;20.940;2023-02-01T15:44:18;9.77;;;4.07;;
33593;SDS011;19920;52.242;20.940;2023-02-01T15:46:28;8.80;;;3.72;;
33593;SDS011;19920;52.242;20.940;2023-02-01T15:48:56;8.38;;;3.95;;
33593;SDS011;19920;52.242;20.940;2023-02-01T15:51:23;9.20;;;3.92;;
33593;SDS011;19920;52.242;20.940;2023-02-01T15:56:36;7.00;;;4.18;;
33593;SDS011;19920;52.242;20.940;2023-02-01T15:59:18;7.55;;;4.45;;
33593;SDS011;19920;52.242;20.940;2023-02-01T16:01:47;10.07;;;4.47;;
33593;SDS011;19920;52.242;20.940;2023-02-01T16:06:45;8.07;;;4.47;;
33593;SDS011;19920;52.242;20.940;2023-02-01T16:09:20;7.03;;;4.40;;
33593;SDS011;19920;52.242;20.940;2023-02-01T16:14:23;10.63;;;5.20;;
33593;SDS011;19920;52.242;20.940;2023-02-01T16:16:49;10.45;;;4.47;;
33593;SDS011;19920;52.242;20.940;2023-02-01T16:19:16;7.70;;;4.50;;
33593;SDS011;19920;52.242;20.940;2023-02-01T16:21:42;9.63;;;4.78;;
33593;SDS011;19920;52.242;20.940;2023-02-01T16:24:08;8.40;;;4.55;;
33593;SDS011;19920;52.242;20.940;2023-02-01T16:26:33;7.55;;;4.32;;
33593;SDS011;19920;52.242;20.940;2023-02-01T16:28:59;7.50;;;4.85;;
33593;SDS011;19920;52.242;20.940;2023-02-01T16:31:28;9.50;;;5.57;;
33593;SDS011;19920;52.242;20.940;2023-02-01T16:33:56;12.13;;;5.43;;
33593;SDS011;19920;52.242;20.940;2023-02-01T16:36:22;9.35;;;5.10;;
33593;SDS011;19920;52.242;20.940;2023-02-01T16:38:49;9.63;;;5.32;;
33593;SDS011;19920;52.242;20.940;2023-02-01T16:41:16;12.40;;;5.35;;
33593;SDS011;19920;52.242;20.940;2023-02-01T16:43:43;13.23;;;5.68;;
33593;SDS011;19920;52.242;20.940;2023-02-01T16:46:13;13.93;;;6.07;;
33593;SDS011;19920;52.242;20.940;2023-02-01T16:48:42;12.73;;;5.85;;
33593;SDS011;19920;52.242;20.940;2023-02-01T16:51:11;10.07;;;5.38;;
33593;SDS011;19920;52.242;20.940;2023-02-01T16:53:39;13.30;;;6.25;;
33593;SDS011;19920;52.242;20.940;2023-02-01T16:56:18;14.50;;;6.25;;
33593;SDS011;19920;52.242;20.940;2023-02-01T16:58:45;17.35;;;5.60;;
33593;SDS011;19920;52.242;20.940;2023-02-01T17:01:12;11.32;;;5.32;;
33593;SDS011;19920;52.242;20.940;2023-02-01T17:03:39;12.95;;;5.68;;
33593;SDS011;19920;52.242;20.940;2023-02-01T17:06:06;11.43;;;5.90;;
33593;SDS011;19920;52.242;20.940;2023-02-01T17:08:35;13.77;;;6.13;;
33593;SDS011;19920;52.242;20.940;2023-02-01T17:11:02;12.02;;;5.70;;
33593;SDS011;19920;52.242;20.940;2023-02-01T17:13:29;10.52;;;5.22;;
33593;SDS011;19920;52.242;20.940;2023-02-01T17:15:57;8.68;;;4.90;;
33593;SDS011;19920;52.242;20.940;2023-02-01T17:18:24;14.88;;;6.05;;
33593;SDS011;19920;52.242;20.940;2023-02-01T17:20:55;13.38;;;5.22;;
33593;SDS011;19920;52.242;20.940;2023-02-01T17:23:22;13.93;;;6.28;;
33593;SDS011;19920;52.242;20.940;2023-02-01T17:25:48;10.10;;;5.15;;
33593;SDS011;19920;52.242;20.940;2023-02-01T17:28:14;15.18;;;6.00;;
33593;SDS011;19920;52.242;20.940;2023-02-01T17:30:40;11.60;;;5.63;;
33593;SDS011;19920;52.242;20.940;2023-02-01T17:33:11;12.45;;;5.60;;
33593;SDS011;19920;52.242;20.940;2023-02-01T17:35:49;14.30;;;5.80;;
33593;SDS011;19920;52.242;20.940;2023-02-01T17:38:16;14.27;;;5.95;;
33593;SDS011;19920;52.242;20.940;2023-02-01T17:40:42;14.02;;;5.65;;
33593;SDS011;19920;52.242;20.940;2023-02-01T17:43:14;10.85;;;5.55;;
33593;SDS011;19920;52.242;20.940;2023-02-01T17:45:56;13.50;;;6.05;;
33593;SDS011;19920;52.242;20.940;2023-02-01T17:48:24;13.85;;;6.13;;
33593;SDS011;19920;52.242;20.940;2023-02-01T17:50:50;15.13;;;5.50;;